sensor_id;sensor_type;location;lat;lon;timestamp;temperature;humidity
68485;DHT22;55472;50.060;21.960;2023-09-12T00:00:35;19.20;99.90
68485;DHT22;55472;50.060;21.960;2023-09-12T00:03:23;19.20;99.90
68485;DHT22;55472;50.060;21.960;2023-09-12T00:05:53;19.20;99.90
68485;DHT22;55472;50.060;21.960;2023-09-12T00:08:19;19.20;99.90
68485;DHT22;55472;50.060;21.960;2023-09-12T00:10:46;19.20;99.90
68485;DHT22;55472;50.060;21.960;2023-09-12T00:13:12;19.10;99.90
68485;DHT22;55472;50.060;21.960;2023-09-12T00:15:38;19.10;99.90
68485;DHT22;55472;50.060;21.960;2023-09-12T00:18:04;19.10;99.90
68485;DHT22;55472;50.060;21.960;2023-09-12T00:20:31;19.00;99.90
68485;DHT22;55472;50.060;21.960;2023-09-12T00:22:56;19.00;99.90
68485;DHT22;55472;50.060;21.960;2023-09-12T00:25:23;19.00;99.90
68485;DHT22;55472;50.060;21.960;2023-09-12T00:27:49;18.90;99.90
68485;DHT22;55472;50.060;21.960;2023-09-12T00:30:15;18.90;99.90
68485;DHT22;55472;50.060;21.960;2023-09-12T00:32:41;18.90;99.90
68485;DHT22;55472;50.060;21.960;2023-09-12T00:35:08;18.80;99.90
68485;DHT22;55472;50.060;21.960;2023-09-12T00:37:34;18.80;99.90
68485;DHT22;55472;50.060;21.960;2023-09-12T00:40:00;18.70;99.90
68485;DHT22;55472;50.060;21.960;2023-09-12T00:42:26;18.70;99.90
68485;DHT22;55472;50.060;21.960;2023-09-12T00:44:52;18.70;99.90
68485;DHT22;55472;50.060;21.960;2023-09-12T00:47:20;18.60;99.90
68485;DHT22;55472;50.060;21.960;2023-09-12T00:49:49;18.60;99.90
68485;DHT22;55472;50.060;21.960;2023-09-12T00:52:17;18.50;99.90
68485;DHT22;55472;50.060;21.960;2023-09-12T00:54:44;18.50;99.90
68485;DHT22;55472;50.060;21.960;2023-09-12T00:57:10;18.50;99.90
68485;DHT22;55472;50.060;21.960;2023-09-12T00:59:37;18.50;99.90
68485;DHT22;55472;50.060;21.960;2023-09-12T01:02:03;18.40;99.90
68485;DHT22;55472;50.060;21.960;2023-09-12T01:04:29;18.40;99.90
68485;DHT22;55472;50.060;21.960;2023-09-12T01:06:55;18.30;99.90
68485;DHT22;55472;50.060;21.960;2023-09-12T01:09:22;18.30;99.90
68485;DHT22;55472;50.060;21.960;2023-09-12T01:11:48;18.30;99.90
68485;DHT22;55472;50.060;21.960;2023-09-12T01:14:14;18.20;99.90
68485;DHT22;55472;50.060;21.960;2023-09-12T01:16:41;18.20;99.90
68485;DHT22;55472;50.060;21.960;2023-09-12T01:19:08;18.20;99.90
68485;DHT22;55472;50.060;21.960;2023-09-12T01:21:53;18.10;99.90
68485;DHT22;55472;50.060;21.960;2023-09-12T01:27:41;17.90;99.90
68485;DHT22;55472;50.060;21.960;2023-09-12T01:30:10;17.90;99.90
68485;DHT22;55472;50.060;21.960;2023-09-12T01:32:39;17.90;99.90
68485;DHT22;55472;50.060;21.960;2023-09-12T01:35:06;17.80;99.90
68485;DHT22;55472;50.060;21.960;2023-09-12T01:37:33;17.80;99.90
68485;DHT22;55472;50.060;21.960;2023-09-12T01:40:00;17.80;99.90
68485;DHT22;55472;50.060;21.960;2023-09-12T01:42:30;17.80;99.90
68485;DHT22;55472;50.060;21.960;2023-09-12T01:45:01;17.80;99.90
68485;DHT22;55472;50.060;21.960;2023-09-12T01:47:29;17.80;99.90
68485;DHT22;55472;50.060;21.960;2023-09-12T01:49:57;17.80;99.90
68485;DHT22;55472;50.060;21.960;2023-09-12T01:52:28;17.80;99.90
68485;DHT22;55472;50.060;21.960;2023-09-12T01:54:55;17.80;99.90
68485;DHT22;55472;50.060;21.960;2023-09-12T01:57:22;17.70;99.90
68485;DHT22;55472;50.060;21.960;2023-09-12T01:59:49;17.70;99.90
68485;DHT22;55472;50.060;21.960;2023-09-12T02:02:16;17.70;99.90
68485;DHT22;55472;50.060;21.960;2023-09-12T02:05:15;17.70;99.90
68485;DHT22;55472;50.060;21.960;2023-09-12T02:07:44;17.70;99.90
68485;DHT22;55472;50.060;21.960;2023-09-12T02:10:12;17.70;99.90
68485;DHT22;55472;50.060;21.960;2023-09-12T02:12:39;17.70;99.90
68485;DHT22;55472;50.060;21.960;2023-09-12T02:15:07;17.70;99.90
68485;DHT22;55472;50.060;21.960;2023-09-12T02:17:33;17.70;99.90
68485;DHT22;55472;50.060;21.960;2023-09-12T02:19:59;17.70;99.90
68485;DHT22;55472;50.060;21.960;2023-09-12T02:22:25;17.70;99.90
68485;DHT22;55472;50.060;21.960;2023-09-12T02:24:52;17.70;99.90
68485;DHT22;55472;50.060;21.960;2023-09-12T02:27:18;17.70;99.90
68485;DHT22;55472;50.060;21.960;2023-09-12T02:29:44;17.70;99.90
68485;DHT22;55472;50.060;21.960;2023-09-12T02:32:10;17.60;99.90
68485;DHT22;55472;50.060;21.960;2023-09-12T02:34:36;17.60;99.90
68485;DHT22;55472;50.060;21.960;2023-09-12T02:37:03;17.60;99.90
68485;DHT22;55472;50.060;21.960;2023-09-12T02:39:29;17.60;99.90
68485;DHT22;55472;50.060;21.960;2023-09-12T02:41:55;17.50;99.90
68485;DHT22;55472;50.060;21.960;2023-09-12T02:44:21;17.50;99.90
68485;DHT22;55472;50.060;21.960;2023-09-12T02:46:47;17.50;99.90
68485;DHT22;55472;50.060;21.960;2023-09-12T02:49:14;17.50;99.90
68485;DHT22;55472;50.060;21.960;2023-09-12T02:51:40;17.50;99.90
68485;DHT22;55472;50.060;21.960;2023-09-12T02:54:07;17.50;99.90
68485;DHT22;55472;50.060;21.960;2023-09-12T02:56:33;17.50;99.90
68485;DHT22;55472;50.060;21.960;2023-09-12T02:58:59;17.50;99.90
68485;DHT22;55472;50.060;21.960;2023-09-12T03:01:25;17.50;99.90
68485;DHT22;55472;50.060;21.960;2023-09-12T03:03:54;17.50;99.90
68485;DHT22;55472;50.060;21.960;2023-09-12T03:06:20;17.50;99.90
68485;DHT22;55472;50.060;21.960;2023-09-12T03:08:47;17.50;99.90
68485;DHT22;55472;50.060;21.960;2023-09-12T03:11:14;17.50;99.90
68485;DHT22;55472;50.060;21.960;2023-09-12T03:13:41;17.40;99.90
68485;DHT22;55472;50.060;21.960;2023-09-12T03:16:14;17.40;99.90
68485;DHT22;55472;50.060;21.960;2023-09-12T03:18:41;17.40;99.90
68485;DHT22;55472;50.060;21.960;2023-09-12T03:21:07;17.40;99.90
68485;DHT22;55472;50.060;21.960;2023-09-12T03:23:33;17.40;99.90
68485;DHT22;55472;50.060;21.960;2023-09-12T03:26:04;17.40;99.90
68485;DHT22;55472;50.060;21.960;2023-09-12T03:28:31;17.40;99.90
68485;DHT22;55472;50.060;21.960;2023-09-12T03:31:07;17.50;99.90
68485;DHT22;55472;50.060;21.960;2023-09-12T03:33:35;17.40;99.90
68485;DHT22;55472;50.060;21.960;2023-09-12T03:36:01;17.50;99.90
68485;DHT22;55472;50.060;21.960;2023-09-12T03:38:27;17.50;99.90
68485;DHT22;55472;50.060;21.960;2023-09-12T03:40:53;17.50;99.90
68485;DHT22;55472;50.060;21.960;2023-09-12T03:43:19;17.50;99.90
68485;DHT22;55472;50.060;21.960;2023-09-12T03:45:45;17.50;99.90
68485;DHT22;55472;50.060;21.960;2023-09-12T03:48:11;17.50;99.90
68485;DHT22;55472;50.060;21.960;2023-09-12T03:50:37;17.50;99.90
68485;DHT22;55472;50.060;21.960;2023-09-12T03:53:04;17.40;99.90
68485;DHT22;55472;50.060;21.960;2023-09-12T03:55:30;17.40;99.90
68485;DHT22;55472;50.060;21.960;2023-09-12T03:57:56;17.40;99.90
68485;DHT22;55472;50.060;21.960;2023-09-12T04:00:22;17.40;99.90
68485;DHT22;55472;50.060;21.960;2023-09-12T04:02:52;17.40;99.90
68485;DHT22;55472;50.060;21.960;2023-09-12T04:05:18;17.40;99.90
68485;DHT22;55472;50.060;21.960;2023-09-12T04:07:44;17.30;99.90
68485;DHT22;55472;50.060;21.960;2023-09-12T04:10:10;17.40;99.90
68485;DHT22;55472;50.060;21.960;2023-09-12T04:12:36;17.40;99.90
68485;DHT22;55472;50.060;21.960;2023-09-12T04:15:03;17.40;99.90
68485;DHT22;55472;50.060;21.960;2023-09-12T04:17:29;17.40;99.90
68485;DHT22;55472;50.060;21.960;2023-09-12T04:19:55;17.40;99.90
68485;DHT22;55472;50.060;21.960;2023-09-12T04:22:21;17.50;99.90
68485;DHT22;55472;50.060;21.960;2023-09-12T04:24:47;17.50;99.90
68485;DHT22;55472;50.060;21.960;2023-09-12T04:27:14;17.50;99.90
68485;DHT22;55472;50.060;21.960;2023-09-12T04:29:40;17.50;99.90
68485;DHT22;55472;50.060;21.960;2023-09-12T04:32:06;17.60;99.90
68485;DHT22;55472;50.060;21.960;2023-09-12T04:34:32;17.60;99.90
68485;DHT22;55472;50.060;21.960;2023-09-12T04:36:58;17.60;99.90
68485;DHT22;55472;50.060;21.960;2023-09-12T04:39:24;17.60;99.90
68485;DHT22;55472;50.060;21.960;2023-09-12T04:41:51;17.60;99.90
68485;DHT22;55472;50.060;21.960;2023-09-12T04:44:17;17.60;99.90
68485;DHT22;55472;50.060;21.960;2023-09-12T04:46:43;17.70;99.90
68485;DHT22;55472;50.060;21.960;2023-09-12T04:49:09;17.70;99.90
68485;DHT22;55472;50.060;21.960;2023-09-12T04:51:35;17.80;99.90
68485;DHT22;55472;50.060;21.960;2023-09-12T04:54:01;17.90;99.90
68485;DHT22;55472;50.060;21.960;2023-09-12T04:56:28;18.00;99.90
68485;DHT22;55472;50.060;21.960;2023-09-12T04:58:54;18.00;99.90
68485;DHT22;55472;50.060;21.960;2023-09-12T05:01:20;18.00;99.90
68485;DHT22;55472;50.060;21.960;2023-09-12T05:03:46;18.10;99.90
68485;DHT22;55472;50.060;21.960;2023-09-12T05:06:13;18.20;99.90
68485;DHT22;55472;50.060;21.960;2023-09-12T05:08:39;18.20;99.90
68485;DHT22;55472;50.060;21.960;2023-09-12T05:11:05;18.30;99.90
68485;DHT22;55472;50.060;21.960;2023-09-12T05:13:31;18.40;99.90
68485;DHT22;55472;50.060;21.960;2023-09-12T05:15:58;18.50;99.90
68485;DHT22;55472;50.060;21.960;2023-09-12T05:18:24;18.60;99.90
68485;DHT22;55472;50.060;21.960;2023-09-12T05:20:50;18.70;99.90
68485;DHT22;55472;50.060;21.960;2023-09-12T05:23:16;18.80;99.90
68485;DHT22;55472;50.060;21.960;2023-09-12T05:25:42;18.90;99.90
68485;DHT22;55472;50.060;21.960;2023-09-12T05:28:08;19.00;99.90
68485;DHT22;55472;50.060;21.960;2023-09-12T05:30:35;19.10;99.90
68485;DHT22;55472;50.060;21.960;2023-09-12T05:33:01;19.20;99.90
68485;DHT22;55472;50.060;21.960;2023-09-12T05:35:28;19.20;99.90
68485;DHT22;55472;50.060;21.960;2023-09-12T05:37:54;19.30;99.90
68485;DHT22;55472;50.060;21.960;2023-09-12T05:40:20;19.40;99.90
68485;DHT22;55472;50.060;21.960;2023-09-12T05:42:46;19.50;99.90
68485;DHT22;55472;50.060;21.960;2023-09-12T05:45:12;19.60;99.90
68485;DHT22;55472;50.060;21.960;2023-09-12T05:47:39;19.70;99.90
68485;DHT22;55472;50.060;21.960;2023-09-12T05:50:06;19.80;99.90
68485;DHT22;55472;50.060;21.960;2023-09-12T05:52:35;20.00;99.90
68485;DHT22;55472;50.060;21.960;2023-09-12T05:55:02;20.10;99.90
68485;DHT22;55472;50.060;21.960;2023-09-12T05:57:30;20.20;99.90
68485;DHT22;55472;50.060;21.960;2023-09-12T05:59:59;20.40;99.90
68485;DHT22;55472;50.060;21.960;2023-09-12T06:02:27;20.60;99.90
68485;DHT22;55472;50.060;21.960;2023-09-12T06:04:54;20.70;99.90
68485;DHT22;55472;50.060;21.960;2023-09-12T06:07:20;20.90;99.90
68485;DHT22;55472;50.060;21.960;2023-09-12T06:09:46;21.10;99.90
68485;DHT22;55472;50.060;21.960;2023-09-12T06:12:12;21.20;99.90
68485;DHT22;55472;50.060;21.960;2023-09-12T06:14:39;21.40;99.90
68485;DHT22;55472;50.060;21.960;2023-09-12T06:17:05;21.50;99.90
68485;DHT22;55472;50.060;21.960;2023-09-12T06:19:31;21.60;99.90
68485;DHT22;55472;50.060;21.960;2023-09-12T06:21:57;21.70;99.90
68485;DHT22;55472;50.060;21.960;2023-09-12T06:24:26;21.80;99.90
68485;DHT22;55472;50.060;21.960;2023-09-12T06:26:54;21.90;99.90
68485;DHT22;55472;50.060;21.960;2023-09-12T06:29:20;22.00;99.90
68485;DHT22;55472;50.060;21.960;2023-09-12T06:31:46;22.10;99.80
68485;DHT22;55472;50.060;21.960;2023-09-12T06:34:13;22.20;97.80
68485;DHT22;55472;50.060;21.960;2023-09-12T06:36:39;22.30;98.10
68485;DHT22;55472;50.060;21.960;2023-09-12T06:39:07;22.50;97.00
68485;DHT22;55472;50.060;21.960;2023-09-12T06:41:33;22.60;97.20
68485;DHT22;55472;50.060;21.960;2023-09-12T06:43:59;22.80;95.60
68485;DHT22;55472;50.060;21.960;2023-09-12T06:46:26;22.90;94.30
68485;DHT22;55472;50.060;21.960;2023-09-12T06:48:53;23.10;94.30
68485;DHT22;55472;50.060;21.960;2023-09-12T06:51:23;23.30;94.50
68485;DHT22;55472;50.060;21.960;2023-09-12T06:53:52;23.40;93.00
68485;DHT22;55472;50.060;21.960;2023-09-12T06:56:18;23.60;91.00
68485;DHT22;55472;50.060;21.960;2023-09-12T06:58:44;23.70;91.80
68485;DHT22;55472;50.060;21.960;2023-09-12T07:01:10;23.90;90.60
68485;DHT22;55472;50.060;21.960;2023-09-12T07:03:37;24.10;89.50
68485;DHT22;55472;50.060;21.960;2023-09-12T07:06:03;24.20;88.20
68485;DHT22;55472;50.060;21.960;2023-09-12T07:08:31;24.20;88.60
68485;DHT22;55472;50.060;21.960;2023-09-12T07:10:58;24.30;88.20
68485;DHT22;55472;50.060;21.960;2023-09-12T07:13:32;24.40;87.50
68485;DHT22;55472;50.060;21.960;2023-09-12T07:15:59;24.50;86.50
68485;DHT22;55472;50.060;21.960;2023-09-12T07:18:26;24.70;85.80
68485;DHT22;55472;50.060;21.960;2023-09-12T07:21:02;24.80;86.30
68485;DHT22;55472;50.060;21.960;2023-09-12T07:23:30;25.00;86.60
68485;DHT22;55472;50.060;21.960;2023-09-12T07:25:57;25.10;86.20
68485;DHT22;55472;50.060;21.960;2023-09-12T07:28:24;25.20;84.40
68485;DHT22;55472;50.060;21.960;2023-09-12T07:30:50;25.40;83.80
68485;DHT22;55472;50.060;21.960;2023-09-12T07:33:17;25.50;83.90
68485;DHT22;55472;50.060;21.960;2023-09-12T07:35:43;25.70;84.30
68485;DHT22;55472;50.060;21.960;2023-09-12T07:38:09;25.80;83.00
68485;DHT22;55472;50.060;21.960;2023-09-12T07:40:35;26.00;83.00
68485;DHT22;55472;50.060;21.960;2023-09-12T07:43:02;26.30;82.90
68485;DHT22;55472;50.060;21.960;2023-09-12T07:45:28;26.40;82.10
68485;DHT22;55472;50.060;21.960;2023-09-12T07:47:55;26.60;80.20
68485;DHT22;55472;50.060;21.960;2023-09-12T07:50:21;26.70;80.00
68485;DHT22;55472;50.060;21.960;2023-09-12T07:52:48;26.90;80.00
68485;DHT22;55472;50.060;21.960;2023-09-12T07:55:14;27.10;80.50
68485;DHT22;55472;50.060;21.960;2023-09-12T07:57:40;27.30;77.70
68485;DHT22;55472;50.060;21.960;2023-09-12T08:00:06;27.50;76.70
68485;DHT22;55472;50.060;21.960;2023-09-12T08:02:35;27.70;77.00
68485;DHT22;55472;50.060;21.960;2023-09-12T08:05:01;27.80;76.90
68485;DHT22;55472;50.060;21.960;2023-09-12T08:07:27;27.90;76.20
68485;DHT22;55472;50.060;21.960;2023-09-12T17:28:56;25.40;99.90
68485;DHT22;55472;50.060;21.960;2023-09-12T17:31:23;25.20;99.90
68485;DHT22;55472;50.060;21.960;2023-09-12T17:33:49;25.10;99.90
68485;DHT22;55472;50.060;21.960;2023-09-12T17:36:16;25.00;99.90
68485;DHT22;55472;50.060;21.960;2023-09-12T17:38:42;24.90;99.90
68485;DHT22;55472;50.060;21.960;2023-09-12T17:41:08;24.80;99.90
68485;DHT22;55472;50.060;21.960;2023-09-12T17:43:35;24.80;99.90
68485;DHT22;55472;50.060;21.960;2023-09-12T17:46:02;24.70;99.90
68485;DHT22;55472;50.060;21.960;2023-09-12T17:48:28;24.60;99.90
68485;DHT22;55472;50.060;21.960;2023-09-12T17:50:55;24.60;99.90
68485;DHT22;55472;50.060;21.960;2023-09-12T17:53:21;24.60;99.90
68485;DHT22;55472;50.060;21.960;2023-09-12T17:55:51;24.50;99.90
68485;DHT22;55472;50.060;21.960;2023-09-12T17:58:18;24.40;99.90
68485;DHT22;55472;50.060;21.960;2023-09-12T18:00:55;24.40;99.90
68485;DHT22;55472;50.060;21.960;2023-09-12T18:03:22;24.40;99.90
68485;DHT22;55472;50.060;21.960;2023-09-12T18:05:48;24.30;99.90
68485;DHT22;55472;50.060;21.960;2023-09-12T18:08:14;24.30;99.90
68485;DHT22;55472;50.060;21.960;2023-09-12T18:10:41;24.20;99.90
68485;DHT22;55472;50.060;21.960;2023-09-12T18:13:07;24.20;99.90
68485;DHT22;55472;50.060;21.960;2023-09-12T18:15:33;24.10;99.90
68485;DHT22;55472;50.060;21.960;2023-09-12T18:17:59;24.00;99.90
68485;DHT22;55472;50.060;21.960;2023-09-12T18:20:26;24.00;99.90
68485;DHT22;55472;50.060;21.960;2023-09-12T18:22:51;23.90;99.90
68485;DHT22;55472;50.060;21.960;2023-09-12T18:25:18;23.90;99.90
68485;DHT22;55472;50.060;21.960;2023-09-12T18:27:44;23.80;99.90
68485;DHT22;55472;50.060;21.960;2023-09-12T18:30:10;23.80;99.90
68485;DHT22;55472;50.060;21.960;2023-09-12T18:32:37;23.70;99.90
68485;DHT22;55472;50.060;21.960;2023-09-12T18:35:04;23.60;99.90
68485;DHT22;55472;50.060;21.960;2023-09-12T18:37:34;23.60;99.90
68485;DHT22;55472;50.060;21.960;2023-09-12T18:40:00;23.60;99.90
68485;DHT22;55472;50.060;21.960;2023-09-12T18:42:26;23.50;99.90
68485;DHT22;55472;50.060;21.960;2023-09-12T18:44:52;23.50;99.90
68485;DHT22;55472;50.060;21.960;2023-09-12T18:47:18;23.40;99.90
68485;DHT22;55472;50.060;21.960;2023-09-12T18:49:44;23.40;99.90
68485;DHT22;55472;50.060;21.960;2023-09-12T18:52:10;23.30;99.90
68485;DHT22;55472;50.060;21.960;2023-09-12T18:54:37;23.30;99.90
68485;DHT22;55472;50.060;21.960;2023-09-12T18:57:10;23.30;99.90
68485;DHT22;55472;50.060;21.960;2023-09-12T18:59:40;23.20;99.90
68485;DHT22;55472;50.060;21.960;2023-09-12T19:02:07;23.20;99.90
68485;DHT22;55472;50.060;21.960;2023-09-12T19:04:33;23.10;99.90
68485;DHT22;55472;50.060;21.960;2023-09-12T19:07:00;23.10;99.90
68485;DHT22;55472;50.060;21.960;2023-09-12T19:09:26;23.10;99.90
68485;DHT22;55472;50.060;21.960;2023-09-12T19:11:53;23.00;99.90
68485;DHT22;55472;50.060;21.960;2023-09-12T19:14:20;23.00;99.90
68485;DHT22;55472;50.060;21.960;2023-09-12T19:16:46;22.90;99.90
68485;DHT22;55472;50.060;21.960;2023-09-12T19:19:18;22.90;99.90
68485;DHT22;55472;50.060;21.960;2023-09-12T19:21:44;22.80;99.90
68485;DHT22;55472;50.060;21.960;2023-09-12T19:24:11;22.80;99.90
68485;DHT22;55472;50.060;21.960;2023-09-12T19:26:39;22.80;99.90
68485;DHT22;55472;50.060;21.960;2023-09-12T19:29:07;22.80;99.90
68485;DHT22;55472;50.060;21.960;2023-09-12T19:31:33;22.70;99.90
68485;DHT22;55472;50.060;21.960;2023-09-12T19:33:59;22.70;99.90
68485;DHT22;55472;50.060;21.960;2023-09-12T19:36:25;22.60;99.90
68485;DHT22;55472;50.060;21.960;2023-09-12T19:38:52;22.60;99.90
68485;DHT22;55472;50.060;21.960;2023-09-12T19:41:18;22.50;99.90
68485;DHT22;55472;50.060;21.960;2023-09-12T19:43:44;22.50;99.90
68485;DHT22;55472;50.060;21.960;2023-09-12T19:46:10;22.40;99.90
68485;DHT22;55472;50.060;21.960;2023-09-12T19:48:36;22.40;99.90
68485;DHT22;55472;50.060;21.960;2023-09-12T19:51:02;22.30;99.90
68485;DHT22;55472;50.060;21.960;2023-09-12T19:53:30;22.30;99.90
68485;DHT22;55472;50.060;21.960;2023-09-12T19:55:57;22.20;99.90
68485;DHT22;55472;50.060;21.960;2023-09-12T19:58:24;22.20;99.90
68485;DHT22;55472;50.060;21.960;2023-09-12T20:00:57;22.20;99.90
68485;DHT22;55472;50.060;21.960;2023-09-12T20:03:24;22.10;99.90
68485;DHT22;55472;50.060;21.960;2023-09-12T20:05:50;22.00;99.90
68485;DHT22;55472;50.060;21.960;2023-09-12T20:08:16;22.00;99.90
68485;DHT22;55472;50.060;21.960;2023-09-12T20:10:43;22.00;99.90
68485;DHT22;55472;50.060;21.960;2023-09-12T20:13:09;22.00;99.90
68485;DHT22;55472;50.060;21.960;2023-09-12T20:15:36;22.00;99.90
68485;DHT22;55472;50.060;21.960;2023-09-12T20:20:33;22.00;99.90
68485;DHT22;55472;50.060;21.960;2023-09-12T20:23:00;22.00;99.90
68485;DHT22;55472;50.060;21.960;2023-09-12T20:25:26;21.90;99.90
68485;DHT22;55472;50.060;21.960;2023-09-12T20:27:53;21.90;99.90
68485;DHT22;55472;50.060;21.960;2023-09-12T20:30:19;21.90;99.90
68485;DHT22;55472;50.060;21.960;2023-09-12T20:32:47;21.90;99.90
68485;DHT22;55472;50.060;21.960;2023-09-12T20:35:15;21.80;99.90
68485;DHT22;55472;50.060;21.960;2023-09-12T20:37:41;21.80;99.90
68485;DHT22;55472;50.060;21.960;2023-09-12T20:40:07;21.80;99.90
68485;DHT22;55472;50.060;21.960;2023-09-12T20:42:34;21.80;99.90
68485;DHT22;55472;50.060;21.960;2023-09-12T20:45:00;21.70;99.90
68485;DHT22;55472;50.060;21.960;2023-09-12T20:47:29;21.70;99.90
68485;DHT22;55472;50.060;21.960;2023-09-12T20:49:55;21.70;99.90
68485;DHT22;55472;50.060;21.960;2023-09-12T20:52:23;21.70;99.90
68485;DHT22;55472;50.060;21.960;2023-09-12T20:54:49;21.60;99.90
68485;DHT22;55472;50.060;21.960;2023-09-12T20:57:16;21.60;99.90
68485;DHT22;55472;50.060;21.960;2023-09-12T20:59:42;21.50;99.90
68485;DHT22;55472;50.060;21.960;2023-09-12T21:02:08;21.50;99.90
68485;DHT22;55472;50.060;21.960;2023-09-12T21:04:34;21.40;99.90
68485;DHT22;55472;50.060;21.960;2023-09-12T21:07:00;21.40;99.90
68485;DHT22;55472;50.060;21.960;2023-09-12T21:09:27;21.30;99.90
68485;DHT22;55472;50.060;21.960;2023-09-12T21:11:53;21.30;99.90
68485;DHT22;55472;50.060;21.960;2023-09-12T21:14:19;21.20;99.90
68485;DHT22;55472;50.060;21.960;2023-09-12T21:16:54;21.10;99.90
68485;DHT22;55472;50.060;21.960;2023-09-12T21:19:21;21.10;99.90
68485;DHT22;55472;50.060;21.960;2023-09-12T21:21:47;21.10;99.90
68485;DHT22;55472;50.060;21.960;2023-09-12T21:24:13;21.10;99.90
68485;DHT22;55472;50.060;21.960;2023-09-12T21:26:40;21.00;99.90
68485;DHT22;55472;50.060;21.960;2023-09-12T21:29:06;21.00;99.90
68485;DHT22;55472;50.060;21.960;2023-09-12T21:31:33;21.00;99.90
68485;DHT22;55472;50.060;21.960;2023-09-12T21:33:59;21.00;99.90
68485;DHT22;55472;50.060;21.960;2023-09-12T21:36:31;21.00;99.90
68485;DHT22;55472;50.060;21.960;2023-09-12T21:38:58;21.00;99.90
68485;DHT22;55472;50.060;21.960;2023-09-12T21:41:55;21.00;99.90
68485;DHT22;55472;50.060;21.960;2023-09-12T21:44:39;20.90;99.90
68485;DHT22;55472;50.060;21.960;2023-09-12T21:47:13;21.00;99.90
68485;DHT22;55472;50.060;21.960;2023-09-12T21:49:39;20.90;99.90
68485;DHT22;55472;50.060;21.960;2023-09-12T21:52:14;20.90;99.90
68485;DHT22;55472;50.060;21.960;2023-09-12T21:54:41;20.90;99.90
68485;DHT22;55472;50.060;21.960;2023-09-12T21:57:30;20.90;99.90
68485;DHT22;55472;50.060;21.960;2023-09-12T21:59:58;20.90;99.90
68485;DHT22;55472;50.060;21.960;2023-09-12T22:02:26;20.80;99.90
68485;DHT22;55472;50.060;21.960;2023-09-12T22:04:52;20.80;99.90
68485;DHT22;55472;50.060;21.960;2023-09-12T22:07:18;20.80;99.90
68485;DHT22;55472;50.060;21.960;2023-09-12T22:09:47;20.80;99.90
68485;DHT22;55472;50.060;21.960;2023-09-12T22:12:14;20.70;99.90
68485;DHT22;55472;50.060;21.960;2023-09-12T22:14:43;20.60;99.90
68485;DHT22;55472;50.060;21.960;2023-09-12T22:17:17;20.60;99.90
68485;DHT22;55472;50.060;21.960;2023-09-12T22:19:44;20.60;99.90
68485;DHT22;55472;50.060;21.960;2023-09-12T22:22:18;20.50;99.90
68485;DHT22;55472;50.060;21.960;2023-09-12T22:24:44;20.50;99.90
68485;DHT22;55472;50.060;21.960;2023-09-12T22:27:11;20.50;99.90
68485;DHT22;55472;50.060;21.960;2023-09-12T22:29:37;20.50;99.90
68485;DHT22;55472;50.060;21.960;2023-09-12T22:32:04;20.50;99.90
68485;DHT22;55472;50.060;21.960;2023-09-12T22:34:30;20.50;99.90
68485;DHT22;55472;50.060;21.960;2023-09-12T22:36:57;20.50;99.90
68485;DHT22;55472;50.060;21.960;2023-09-12T22:39:23;20.40;99.90
68485;DHT22;55472;50.060;21.960;2023-09-12T22:41:49;20.40;99.90
68485;DHT22;55472;50.060;21.960;2023-09-12T22:44:15;20.40;99.90
68485;DHT22;55472;50.060;21.960;2023-09-12T22:46:42;20.40;99.90
68485;DHT22;55472;50.060;21.960;2023-09-12T22:49:08;20.40;99.90
68485;DHT22;55472;50.060;21.960;2023-09-12T22:51:36;20.40;99.90
68485;DHT22;55472;50.060;21.960;2023-09-12T22:54:05;20.30;99.90
68485;DHT22;55472;50.060;21.960;2023-09-12T22:56:37;20.30;99.90
68485;DHT22;55472;50.060;21.960;2023-09-12T22:59:03;20.20;99.90
68485;DHT22;55472;50.060;21.960;2023-09-12T23:01:44;20.20;99.90
68485;DHT22;55472;50.060;21.960;2023-09-12T23:04:11;20.20;99.90
68485;DHT22;55472;50.060;21.960;2023-09-12T23:06:37;20.20;99.90
68485;DHT22;55472;50.060;21.960;2023-09-12T23:09:05;20.10;99.90
68485;DHT22;55472;50.060;21.960;2023-09-12T23:11:33;20.10;99.90
68485;DHT22;55472;50.060;21.960;2023-09-12T23:13:59;20.10;99.90
68485;DHT22;55472;50.060;21.960;2023-09-12T23:16:25;20.00;99.90
68485;DHT22;55472;50.060;21.960;2023-09-12T23:18:56;20.00;99.90
68485;DHT22;55472;50.060;21.960;2023-09-12T23:21:24;20.00;99.90
68485;DHT22;55472;50.060;21.960;2023-09-12T23:23:54;20.00;99.90
68485;DHT22;55472;50.060;21.960;2023-09-12T23:26:20;20.00;99.90
68485;DHT22;55472;50.060;21.960;2023-09-12T23:28:48;19.90;99.90
68485;DHT22;55472;50.060;21.960;2023-09-12T23:31:15;19.90;99.90
68485;DHT22;55472;50.060;21.960;2023-09-12T23:33:59;19.90;99.90
68485;DHT22;55472;50.060;21.960;2023-09-12T23:36:26;19.90;99.90
68485;DHT22;55472;50.060;21.960;2023-09-12T23:38:52;19.80;99.90
68485;DHT22;55472;50.060;21.960;2023-09-12T23:41:22;19.80;99.90
68485;DHT22;55472;50.060;21.960;2023-09-12T23:43:49;19.80;99.90
68485;DHT22;55472;50.060;21.960;2023-09-12T23:46:24;19.80;99.90
68485;DHT22;55472;50.060;21.960;2023-09-12T23:48:53;19.80;99.90
68485;DHT22;55472;50.060;21.960;2023-09-12T23:51:21;19.80;99.90
68485;DHT22;55472;50.060;21.960;2023-09-12T23:53:47;19.80;99.90
68485;DHT22;55472;50.060;21.960;2023-09-12T23:56:13;19.80;99.90
68485;DHT22;55472;50.060;21.960;2023-09-12T23:58:39;19.70;99.90
